sensor_id;sensor_type;location;lat;lon;timestamp;P1;durP1;ratioP1;P2;durP2;ratioP2
18338;SDS011;9295;44.484;11.240;2023-02-15T00:00:13;92.67;;;38.60;;
18338;SDS011;9295;44.484;11.240;2023-02-15T00:02:42;98.40;;;38.97;;
18338;SDS011;9295;44.484;11.240;2023-02-15T00:05:12;99.67;;;40.17;;
18338;SDS011;9295;44.484;11.240;2023-02-15T00:07:41;107.23;;;41.47;;
18338;SDS011;9295;44.484;11.240;2023-02-15T00:10:09;101.40;;;42.10;;
18338;SDS011;9295;44.484;11.240;2023-02-15T00:12:38;111.20;;;43.90;;
18338;SDS011;9295;44.484;11.240;2023-02-15T00:15:07;109.00;;;43.07;;
18338;SDS011;9295;44.484;11.240;2023-02-15T00:17:36;100.43;;;41.93;;
18338;SDS011;9295;44.484;11.240;2023-02-15T00:20:05;99.53;;;40.60;;
18338;SDS011;9295;44.484;11.240;2023-02-15T00:22:35;99.07;;;41.43;;
18338;SDS011;9295;44.484;11.240;2023-02-15T00:25:05;107.27;;;42.20;;
18338;SDS011;9295;44.484;11.240;2023-02-15T00:27:34;101.17;;;41.80;;
18338;SDS011;9295;44.484;11.240;2023-02-15T00:30:02;105.47;;;43.93;;
18338;SDS011;9295;44.484;11.240;2023-02-15T00:32:32;108.00;;;43.47;;
18338;SDS011;9295;44.484;11.240;2023-02-15T00:35:01;108.47;;;42.93;;
18338;SDS011;9295;44.484;11.240;2023-02-15T00:37:30;101.73;;;41.23;;
18338;SDS011;9295;44.484;11.240;2023-02-15T00:40:00;100.10;;;39.17;;
18338;SDS011;9295;44.484;11.240;2023-02-15T00:42:29;106.57;;;42.37;;
18338;SDS011;9295;44.484;11.240;2023-02-15T00:44:58;105.63;;;41.73;;
18338;SDS011;9295;44.484;11.240;2023-02-15T00:47:27;114.03;;;45.47;;
18338;SDS011;9295;44.484;11.240;2023-02-15T00:49:56;103.83;;;40.53;;
18338;SDS011;9295;44.484;11.240;2023-02-15T00:52:25;92.23;;;37.27;;
18338;SDS011;9295;44.484;11.240;2023-02-15T00:54:55;99.73;;;38.87;;
18338;SDS011;9295;44.484;11.240;2023-02-15T00:57:25;91.77;;;37.67;;
18338;SDS011;9295;44.484;11.240;2023-02-15T00:59:53;107.03;;;40.90;;
18338;SDS011;9295;44.484;11.240;2023-02-15T01:02:22;98.97;;;41.80;;
18338;SDS011;9295;44.484;11.240;2023-02-15T01:04:51;106.67;;;41.10;;
18338;SDS011;9295;44.484;11.240;2023-02-15T01:07:19;107.03;;;42.30;;
18338;SDS011;9295;44.484;11.240;2023-02-15T01:09:48;104.73;;;42.40;;
18338;SDS011;9295;44.484;11.240;2023-02-15T01:12:16;123.10;;;43.77;;
18338;SDS011;9295;44.484;11.240;2023-02-15T01:14:47;104.57;;;40.33;;
18338;SDS011;9295;44.484;11.240;2023-02-15T01:17:16;100.67;;;40.00;;
18338;SDS011;9295;44.484;11.240;2023-02-15T01:19:44;101.17;;;38.80;;
18338;SDS011;9295;44.484;11.240;2023-02-15T01:22:13;93.40;;;37.37;;
18338;SDS011;9295;44.484;11.240;2023-02-15T01:24:41;100.37;;;37.97;;
18338;SDS011;9295;44.484;11.240;2023-02-15T01:27:10;103.60;;;38.30;;
18338;SDS011;9295;44.484;11.240;2023-02-15T01:29:39;101.90;;;39.17;;
18338;SDS011;9295;44.484;11.240;2023-02-15T01:32:09;99.73;;;39.07;;
18338;SDS011;9295;44.484;11.240;2023-02-15T01:34:37;96.73;;;38.73;;
18338;SDS011;9295;44.484;11.240;2023-02-15T01:37:06;105.50;;;39.33;;
18338;SDS011;9295;44.484;11.240;2023-02-15T01:39:35;108.43;;;41.17;;
18338;SDS011;9295;44.484;11.240;2023-02-15T01:42:03;100.90;;;40.80;;
18338;SDS011;9295;44.484;11.240;2023-02-15T01:44:48;104.03;;;42.13;;
18338;SDS011;9295;44.484;11.240;2023-02-15T01:47:22;105.47;;;40.27;;
18338;SDS011;9295;44.484;11.240;2023-02-15T01:50:00;91.77;;;37.83;;
18338;SDS011;9295;44.484;11.240;2023-02-15T01:52:34;106.60;;;37.30;;
18338;SDS011;9295;44.484;11.240;2023-02-15T01:55:06;91.93;;;37.30;;
18338;SDS011;9295;44.484;11.240;2023-02-15T01:57:36;93.70;;;37.07;;
18338;SDS011;9295;44.484;11.240;2023-02-15T02:00:05;112.53;;;43.43;;
18338;SDS011;9295;44.484;11.240;2023-02-15T02:02:40;94.03;;;38.77;;
18338;SDS011;9295;44.484;11.240;2023-02-15T02:05:14;103.77;;;40.60;;
18338;SDS011;9295;44.484;11.240;2023-02-15T02:07:43;106.40;;;41.53;;
18338;SDS011;9295;44.484;11.240;2023-02-15T02:10:15;99.47;;;43.10;;
18338;SDS011;9295;44.484;11.240;2023-02-15T02:12:46;107.27;;;44.20;;
18338;SDS011;9295;44.484;11.240;2023-02-15T02:15:17;110.50;;;40.10;;
18338;SDS011;9295;44.484;11.240;2023-02-15T02:17:54;93.10;;;35.10;;
18338;SDS011;9295;44.484;11.240;2023-02-15T02:20:49;104.23;;;42.00;;
18338;SDS011;9295;44.484;11.240;2023-02-15T02:23:58;99.80;;;35.73;;
18338;SDS011;9295;44.484;11.240;2023-02-15T02:30:11;94.03;;;39.10;;
18338;SDS011;9295;44.484;11.240;2023-02-15T02:36:14;95.50;;;36.20;;
18338;SDS011;9295;44.484;11.240;2023-02-15T02:38:52;90.37;;;35.97;;
18338;SDS011;9295;44.484;11.240;2023-02-15T02:41:36;93.33;;;37.57;;
18338;SDS011;9295;44.484;11.240;2023-02-15T02:44:11;95.27;;;37.70;;
18338;SDS011;9295;44.484;11.240;2023-02-15T02:46:45;92.80;;;34.73;;
18338;SDS011;9295;44.484;11.240;2023-02-15T02:49:28;98.93;;;38.73;;
18338;SDS011;9295;44.484;11.240;2023-02-15T02:51:58;95.50;;;39.20;;
18338;SDS011;9295;44.484;11.240;2023-02-15T02:54:28;91.67;;;37.20;;
18338;SDS011;9295;44.484;11.240;2023-02-15T02:56:59;123.73;;;39.70;;
18338;SDS011;9295;44.484;11.240;2023-02-15T02:59:30;95.00;;;37.33;;
18338;SDS011;9295;44.484;11.240;2023-02-15T03:02:02;101.33;;;38.23;;
18338;SDS011;9295;44.484;11.240;2023-02-15T03:04:41;98.97;;;37.00;;
18338;SDS011;9295;44.484;11.240;2023-02-15T03:07:14;91.27;;;35.07;;
18338;SDS011;9295;44.484;11.240;2023-02-15T03:09:54;73.07;;;29.40;;
18338;SDS011;9295;44.484;11.240;2023-02-15T03:12:26;74.47;;;28.77;;
18338;SDS011;9295;44.484;11.240;2023-02-15T03:14:58;79.13;;;28.70;;
18338;SDS011;9295;44.484;11.240;2023-02-15T03:17:32;69.60;;;28.50;;
18338;SDS011;9295;44.484;11.240;2023-02-15T03:20:06;89.40;;;36.70;;
18338;SDS011;9295;44.484;11.240;2023-02-15T03:22:38;92.77;;;37.17;;
18338;SDS011;9295;44.484;11.240;2023-02-15T03:25:12;97.23;;;36.80;;
18338;SDS011;9295;44.484;11.240;2023-02-15T03:27:48;101.20;;;36.47;;
18338;SDS011;9295;44.484;11.240;2023-02-15T03:30:19;101.40;;;37.03;;
18338;SDS011;9295;44.484;11.240;2023-02-15T03:32:50;90.27;;;35.13;;
18338;SDS011;9295;44.484;11.240;2023-02-15T03:35:22;85.80;;;35.33;;
18338;SDS011;9295;44.484;11.240;2023-02-15T03:37:53;89.80;;;34.83;;
18338;SDS011;9295;44.484;11.240;2023-02-15T03:40:28;90.10;;;33.90;;
18338;SDS011;9295;44.484;11.240;2023-02-15T03:43:17;82.67;;;30.57;;
18338;SDS011;9295;44.484;11.240;2023-02-15T03:45:51;82.07;;;30.50;;
18338;SDS011;9295;44.484;11.240;2023-02-15T03:48:24;69.90;;;27.63;;
18338;SDS011;9295;44.484;11.240;2023-02-15T03:51:00;61.97;;;25.43;;
18338;SDS011;9295;44.484;11.240;2023-02-15T03:53:48;74.90;;;30.43;;
18338;SDS011;9295;44.484;11.240;2023-02-15T03:56:19;73.40;;;30.67;;
18338;SDS011;9295;44.484;11.240;2023-02-15T03:58:47;85.67;;;31.10;;
18338;SDS011;9295;44.484;11.240;2023-02-15T04:01:44;88.90;;;32.50;;
18338;SDS011;9295;44.484;11.240;2023-02-15T04:04:29;74.73;;;30.03;;
18338;SDS011;9295;44.484;11.240;2023-02-15T04:07:03;80.47;;;29.47;;
18338;SDS011;9295;44.484;11.240;2023-02-15T04:09:33;84.90;;;30.23;;
18338;SDS011;9295;44.484;11.240;2023-02-15T04:12:19;71.53;;;30.00;;
18338;SDS011;9295;44.484;11.240;2023-02-15T04:14:47;76.50;;;30.27;;
18338;SDS011;9295;44.484;11.240;2023-02-15T04:17:35;81.57;;;30.77;;
18338;SDS011;9295;44.484;11.240;2023-02-15T04:20:05;83.50;;;31.40;;
18338;SDS011;9295;44.484;11.240;2023-02-15T04:22:53;83.37;;;30.23;;
18338;SDS011;9295;44.484;11.240;2023-02-15T04:25:39;79.73;;;30.17;;
18338;SDS011;9295;44.484;11.240;2023-02-15T04:28:07;76.93;;;30.90;;
18338;SDS011;9295;44.484;11.240;2023-02-15T04:30:36;80.17;;;31.27;;
18338;SDS011;9295;44.484;11.240;2023-02-15T04:33:04;75.07;;;29.73;;
18338;SDS011;9295;44.484;11.240;2023-02-15T04:35:32;71.20;;;29.77;;
18338;SDS011;9295;44.484;11.240;2023-02-15T04:38:02;76.03;;;30.47;;
18338;SDS011;9295;44.484;11.240;2023-02-15T04:40:31;83.20;;;32.93;;
18338;SDS011;9295;44.484;11.240;2023-02-15T04:42:59;90.30;;;32.70;;
18338;SDS011;9295;44.484;11.240;2023-02-15T04:45:28;80.80;;;31.03;;
18338;SDS011;9295;44.484;11.240;2023-02-15T04:47:56;85.40;;;34.37;;
18338;SDS011;9295;44.484;11.240;2023-02-15T04:50:25;81.87;;;31.37;;
18338;SDS011;9295;44.484;11.240;2023-02-15T04:52:53;78.90;;;29.57;;
18338;SDS011;9295;44.484;11.240;2023-02-15T04:55:23;71.67;;;27.57;;
18338;SDS011;9295;44.484;11.240;2023-02-15T04:57:53;68.77;;;27.87;;
18338;SDS011;9295;44.484;11.240;2023-02-15T05:00:22;73.60;;;26.60;;
18338;SDS011;9295;44.484;11.240;2023-02-15T05:02:50;69.70;;;26.80;;
18338;SDS011;9295;44.484;11.240;2023-02-15T05:05:19;66.90;;;28.10;;
18338;SDS011;9295;44.484;11.240;2023-02-15T05:07:47;71.10;;;29.67;;
18338;SDS011;9295;44.484;11.240;2023-02-15T05:10:16;76.87;;;30.87;;
18338;SDS011;9295;44.484;11.240;2023-02-15T05:12:46;71.30;;;29.03;;
18338;SDS011;9295;44.484;11.240;2023-02-15T05:15:14;72.70;;;30.00;;
18338;SDS011;9295;44.484;11.240;2023-02-15T05:17:43;72.00;;;28.97;;
18338;SDS011;9295;44.484;11.240;2023-02-15T05:20:12;78.07;;;27.73;;
18338;SDS011;9295;44.484;11.240;2023-02-15T05:22:40;72.87;;;30.23;;
18338;SDS011;9295;44.484;11.240;2023-02-15T05:25:09;75.40;;;30.00;;
18338;SDS011;9295;44.484;11.240;2023-02-15T05:27:56;71.50;;;29.47;;
18338;SDS011;9295;44.484;11.240;2023-02-15T05:30:42;75.53;;;30.57;;
18338;SDS011;9295;44.484;11.240;2023-02-15T05:33:10;79.60;;;30.03;;
18338;SDS011;9295;44.484;11.240;2023-02-15T05:35:39;76.10;;;30.87;;
18338;SDS011;9295;44.484;11.240;2023-02-15T05:38:08;72.13;;;28.07;;
18338;SDS011;9295;44.484;11.240;2023-02-15T05:40:36;69.47;;;28.70;;
18338;SDS011;9295;44.484;11.240;2023-02-15T05:43:06;69.67;;;28.80;;
18338;SDS011;9295;44.484;11.240;2023-02-15T05:45:35;76.87;;;30.40;;
18338;SDS011;9295;44.484;11.240;2023-02-15T05:48:03;73.57;;;30.57;;
18338;SDS011;9295;44.484;11.240;2023-02-15T05:50:32;78.77;;;29.50;;
18338;SDS011;9295;44.484;11.240;2023-02-15T05:53:00;80.90;;;31.67;;
18338;SDS011;9295;44.484;11.240;2023-02-15T05:55:29;80.23;;;30.67;;
18338;SDS011;9295;44.484;11.240;2023-02-15T05:57:57;77.60;;;28.87;;
18338;SDS011;9295;44.484;11.240;2023-02-15T06:00:27;67.83;;;29.30;;
18338;SDS011;9295;44.484;11.240;2023-02-15T06:02:55;76.70;;;27.87;;
18338;SDS011;9295;44.484;11.240;2023-02-15T06:05:24;81.80;;;31.50;;
18338;SDS011;9295;44.484;11.240;2023-02-15T06:07:52;75.37;;;30.13;;
18338;SDS011;9295;44.484;11.240;2023-02-15T06:10:21;80.63;;;30.63;;
18338;SDS011;9295;44.484;11.240;2023-02-15T06:12:50;78.70;;;29.50;;
18338;SDS011;9295;44.484;11.240;2023-02-15T06:15:18;72.97;;;29.63;;
18338;SDS011;9295;44.484;11.240;2023-02-15T06:17:48;73.77;;;30.13;;
18338;SDS011;9295;44.484;11.240;2023-02-15T06:20:17;76.00;;;30.10;;
18338;SDS011;9295;44.484;11.240;2023-02-15T06:22:46;77.33;;;29.87;;
18338;SDS011;9295;44.484;11.240;2023-02-15T06:25:14;67.17;;;26.90;;
18338;SDS011;9295;44.484;11.240;2023-02-15T06:27:43;69.53;;;28.30;;
18338;SDS011;9295;44.484;11.240;2023-02-15T06:30:12;72.50;;;29.30;;
18338;SDS011;9295;44.484;11.240;2023-02-15T06:32:41;75.60;;;30.53;;
18338;SDS011;9295;44.484;11.240;2023-02-15T06:35:11;74.57;;;29.70;;
18338;SDS011;9295;44.484;11.240;2023-02-15T06:37:39;85.23;;;32.80;;
18338;SDS011;9295;44.484;11.240;2023-02-15T06:40:08;72.93;;;31.40;;
18338;SDS011;9295;44.484;11.240;2023-02-15T06:42:37;67.13;;;26.30;;
18338;SDS011;9295;44.484;11.240;2023-02-15T06:45:06;76.97;;;28.50;;
18338;SDS011;9295;44.484;11.240;2023-02-15T06:47:35;65.27;;;27.10;;
18338;SDS011;9295;44.484;11.240;2023-02-15T06:50:05;60.73;;;25.27;;
18338;SDS011;9295;44.484;11.240;2023-02-15T06:52:36;63.73;;;27.23;;
18338;SDS011;9295;44.484;11.240;2023-02-15T06:55:05;64.60;;;26.47;;
18338;SDS011;9295;44.484;11.240;2023-02-15T06:57:34;64.30;;;24.30;;
18338;SDS011;9295;44.484;11.240;2023-02-15T07:00:03;65.53;;;24.50;;
18338;SDS011;9295;44.484;11.240;2023-02-15T07:02:32;58.80;;;22.80;;
18338;SDS011;9295;44.484;11.240;2023-02-15T07:05:01;67.70;;;26.43;;
18338;SDS011;9295;44.484;11.240;2023-02-15T07:07:31;57.80;;;25.83;;
18338;SDS011;9295;44.484;11.240;2023-02-15T07:10:01;60.90;;;26.70;;
18338;SDS011;9295;44.484;11.240;2023-02-15T07:12:30;55.37;;;24.73;;
18338;SDS011;9295;44.484;11.240;2023-02-15T07:15:12;38.67;;;20.30;;
18338;SDS011;9295;44.484;11.240;2023-02-15T07:17:42;40.63;;;21.83;;
18338;SDS011;9295;44.484;11.240;2023-02-15T07:20:13;41.03;;;21.20;;
18338;SDS011;9295;44.484;11.240;2023-02-15T07:22:43;46.87;;;24.83;;
18338;SDS011;9295;44.484;11.240;2023-02-15T07:25:13;51.00;;;27.00;;
18338;SDS011;9295;44.484;11.240;2023-02-15T07:27:42;62.33;;;28.70;;
18338;SDS011;9295;44.484;11.240;2023-02-15T07:30:12;56.80;;;28.83;;
18338;SDS011;9295;44.484;11.240;2023-02-15T07:32:42;58.67;;;30.20;;
18338;SDS011;9295;44.484;11.240;2023-02-15T07:35:25;59.20;;;31.27;;
18338;SDS011;9295;44.484;11.240;2023-02-15T07:37:54;59.17;;;31.13;;
18338;SDS011;9295;44.484;11.240;2023-02-15T07:40:24;60.57;;;32.50;;
18338;SDS011;9295;44.484;11.240;2023-02-15T07:42:52;52.80;;;27.60;;
18338;SDS011;9295;44.484;11.240;2023-02-15T07:45:22;53.20;;;28.80;;
18338;SDS011;9295;44.484;11.240;2023-02-15T07:47:51;52.00;;;28.50;;
18338;SDS011;9295;44.484;11.240;2023-02-15T07:50:20;55.50;;;27.77;;
18338;SDS011;9295;44.484;11.240;2023-02-15T07:52:48;51.57;;;30.80;;
18338;SDS011;9295;44.484;11.240;2023-02-15T07:55:17;56.93;;;30.70;;
18338;SDS011;9295;44.484;11.240;2023-02-15T07:57:48;64.00;;;31.40;;
18338;SDS011;9295;44.484;11.240;2023-02-15T08:00:18;61.67;;;30.97;;
18338;SDS011;9295;44.484;11.240;2023-02-15T08:02:52;53.23;;;29.70;;
18338;SDS011;9295;44.484;11.240;2023-02-15T08:05:36;51.20;;;28.97;;
18338;SDS011;9295;44.484;11.240;2023-02-15T08:08:05;60.23;;;31.20;;
18338;SDS011;9295;44.484;11.240;2023-02-15T08:10:34;51.03;;;28.33;;
18338;SDS011;9295;44.484;11.240;2023-02-15T08:13:22;61.70;;;32.90;;
18338;SDS011;9295;44.484;11.240;2023-02-15T08:15:50;60.23;;;30.60;;
18338;SDS011;9295;44.484;11.240;2023-02-15T08:18:19;59.80;;;31.60;;
18338;SDS011;9295;44.484;11.240;2023-02-15T08:20:48;54.80;;;29.63;;
18338;SDS011;9295;44.484;11.240;2023-02-15T08:23:17;59.20;;;30.70;;
18338;SDS011;9295;44.484;11.240;2023-02-15T08:25:46;54.30;;;28.20;;
18338;SDS011;9295;44.484;11.240;2023-02-15T08:28:14;61.30;;;29.67;;
18338;SDS011;9295;44.484;11.240;2023-02-15T08:30:44;61.07;;;30.80;;
18338;SDS011;9295;44.484;11.240;2023-02-15T08:33:13;49.50;;;26.20;;
18338;SDS011;9295;44.484;11.240;2023-02-15T08:35:41;61.00;;;26.97;;
18338;SDS011;9295;44.484;11.240;2023-02-15T08:38:10;66.43;;;27.50;;
18338;SDS011;9295;44.484;11.240;2023-02-15T08:40:39;51.17;;;22.97;;
18338;SDS011;9295;44.484;11.240;2023-02-15T08:43:09;65.67;;;23.93;;
18338;SDS011;9295;44.484;11.240;2023-02-15T08:45:37;62.10;;;25.50;;
18338;SDS011;9295;44.484;11.240;2023-02-15T08:48:07;64.90;;;27.73;;
18338;SDS011;9295;44.484;11.240;2023-02-15T08:50:36;60.00;;;26.63;;
18338;SDS011;9295;44.484;11.240;2023-02-15T08:53:04;56.80;;;26.97;;
18338;SDS011;9295;44.484;11.240;2023-02-15T08:55:33;58.93;;;26.53;;
18338;SDS011;9295;44.484;11.240;2023-02-15T08:58:01;63.80;;;28.47;;
18338;SDS011;9295;44.484;11.240;2023-02-15T09:00:30;55.23;;;26.37;;
18338;SDS011;9295;44.484;11.240;2023-02-15T09:02:58;51.43;;;26.33;;
18338;SDS011;9295;44.484;11.240;2023-02-15T09:05:28;56.00;;;26.57;;
18338;SDS011;9295;44.484;11.240;2023-02-15T09:07:57;51.80;;;25.00;;
18338;SDS011;9295;44.484;11.240;2023-02-15T09:10:40;52.93;;;24.83;;
18338;SDS011;9295;44.484;11.240;2023-02-15T09:13:09;53.40;;;25.30;;
18338;SDS011;9295;44.484;11.240;2023-02-15T09:15:37;53.07;;;23.20;;
18338;SDS011;9295;44.484;11.240;2023-02-15T09:18:06;54.67;;;25.10;;
18338;SDS011;9295;44.484;11.240;2023-02-15T09:20:36;54.10;;;25.87;;
18338;SDS011;9295;44.484;11.240;2023-02-15T09:23:05;56.43;;;25.70;;
18338;SDS011;9295;44.484;11.240;2023-02-15T09:25:44;73.40;;;29.60;;
18338;SDS011;9295;44.484;11.240;2023-02-15T09:28:13;63.23;;;29.40;;
18338;SDS011;9295;44.484;11.240;2023-02-15T09:30:41;81.80;;;35.00;;
18338;SDS011;9295;44.484;11.240;2023-02-15T09:33:10;77.90;;;33.23;;
18338;SDS011;9295;44.484;11.240;2023-02-15T09:35:40;74.97;;;32.97;;
18338;SDS011;9295;44.484;11.240;2023-02-15T09:38:08;66.07;;;29.20;;
18338;SDS011;9295;44.484;11.240;2023-02-15T09:40:39;64.43;;;29.00;;
18338;SDS011;9295;44.484;11.240;2023-02-15T09:43:20;58.43;;;27.47;;
18338;SDS011;9295;44.484;11.240;2023-02-15T09:46:16;58.27;;;26.43;;
18338;SDS011;9295;44.484;11.240;2023-02-15T09:48:57;56.07;;;24.40;;
18338;SDS011;9295;44.484;11.240;2023-02-15T09:54:47;54.60;;;23.80;;
18338;SDS011;9295;44.484;11.240;2023-02-15T09:57:29;57.93;;;23.17;;
18338;SDS011;9295;44.484;11.240;2023-02-15T10:00:06;53.10;;;24.70;;
18338;SDS011;9295;44.484;11.240;2023-02-15T10:03:00;63.80;;;28.67;;
18338;SDS011;9295;44.484;11.240;2023-02-15T10:05:43;80.10;;;29.70;;
18338;SDS011;9295;44.484;11.240;2023-02-15T10:08:28;61.87;;;29.63;;
18338;SDS011;9295;44.484;11.240;2023-02-15T10:11:09;81.53;;;33.57;;
18338;SDS011;9295;44.484;11.240;2023-02-15T10:14:03;76.23;;;33.10;;
18338;SDS011;9295;44.484;11.240;2023-02-15T10:17:02;68.83;;;30.70;;
18338;SDS011;9295;44.484;11.240;2023-02-15T10:19:43;70.20;;;30.77;;
18338;SDS011;9295;44.484;11.240;2023-02-15T10:22:22;68.17;;;29.13;;
18338;SDS011;9295;44.484;11.240;2023-02-15T10:25:06;63.03;;;27.20;;
18338;SDS011;9295;44.484;11.240;2023-02-15T10:27:44;62.27;;;29.13;;
18338;SDS011;9295;44.484;11.240;2023-02-15T10:30:14;65.47;;;28.40;;
18338;SDS011;9295;44.484;11.240;2023-02-15T10:32:50;58.93;;;27.90;;
18338;SDS011;9295;44.484;11.240;2023-02-15T10:35:30;70.87;;;28.50;;
18338;SDS011;9295;44.484;11.240;2023-02-15T10:38:17;68.23;;;27.87;;
18338;SDS011;9295;44.484;11.240;2023-02-15T10:40:54;62.80;;;27.67;;
18338;SDS011;9295;44.484;11.240;2023-02-15T10:43:43;66.63;;;29.17;;
18338;SDS011;9295;44.484;11.240;2023-02-15T10:46:24;65.40;;;28.73;;
18338;SDS011;9295;44.484;11.240;2023-02-15T10:49:14;69.63;;;28.40;;
18338;SDS011;9295;44.484;11.240;2023-02-15T10:51:57;69.63;;;29.27;;
18338;SDS011;9295;44.484;11.240;2023-02-15T10:54:35;64.57;;;29.10;;
18338;SDS011;9295;44.484;11.240;2023-02-15T10:57:11;70.70;;;29.00;;
18338;SDS011;9295;44.484;11.240;2023-02-15T10:59:51;71.27;;;29.10;;
18338;SDS011;9295;44.484;11.240;2023-02-15T11:02:32;69.60;;;30.13;;
18338;SDS011;9295;44.484;11.240;2023-02-15T11:05:24;60.43;;;26.00;;
18338;SDS011;9295;44.484;11.240;2023-02-15T11:08:01;73.97;;;27.80;;
18338;SDS011;9295;44.484;11.240;2023-02-15T11:10:35;56.83;;;26.30;;
18338;SDS011;9295;44.484;11.240;2023-02-15T11:13:09;60.70;;;26.23;;
18338;SDS011;9295;44.484;11.240;2023-02-15T11:15:43;59.80;;;26.60;;
18338;SDS011;9295;44.484;11.240;2023-02-15T11:18:15;62.80;;;25.93;;
18338;SDS011;9295;44.484;11.240;2023-02-15T11:20:50;51.93;;;24.47;;
18338;SDS011;9295;44.484;11.240;2023-02-15T11:23:23;56.33;;;24.90;;
18338;SDS011;9295;44.484;11.240;2023-02-15T11:25:57;59.63;;;26.20;;
18338;SDS011;9295;44.484;11.240;2023-02-15T11:28:29;66.63;;;28.53;;
18338;SDS011;9295;44.484;11.240;2023-02-15T11:31:02;65.60;;;28.00;;
18338;SDS011;9295;44.484;11.240;2023-02-15T11:33:41;62.37;;;26.90;;
18338;SDS011;9295;44.484;11.240;2023-02-15T11:36:14;65.23;;;28.00;;
18338;SDS011;9295;44.484;11.240;2023-02-15T11:38:46;64.80;;;27.87;;
18338;SDS011;9295;44.484;11.240;2023-02-15T11:41:21;63.20;;;27.83;;
18338;SDS011;9295;44.484;11.240;2023-02-15T11:43:56;66.97;;;28.47;;
18338;SDS011;9295;44.484;11.240;2023-02-15T11:46:29;70.60;;;30.10;;
18338;SDS011;9295;44.484;11.240;2023-02-15T11:48:58;71.60;;;30.90;;
18338;SDS011;9295;44.484;11.240;2023-02-15T11:51:26;68.03;;;28.50;;
18338;SDS011;9295;44.484;11.240;2023-02-15T11:53:56;78.20;;;29.10;;
18338;SDS011;9295;44.484;11.240;2023-02-15T11:56:25;62.90;;;27.93;;
18338;SDS011;9295;44.484;11.240;2023-02-15T11:58:56;63.53;;;29.37;;
18338;SDS011;9295;44.484;11.240;2023-02-15T12:01:28;66.93;;;27.00;;
18338;SDS011;9295;44.484;11.240;2023-02-15T12:04:01;68.47;;;29.00;;
18338;SDS011;9295;44.484;11.240;2023-02-15T12:06:33;60.07;;;28.10;;
18338;SDS011;9295;44.484;11.240;2023-02-15T12:09:06;64.90;;;28.10;;
18338;SDS011;9295;44.484;11.240;2023-02-15T12:11:48;66.03;;;26.50;;
18338;SDS011;9295;44.484;11.240;2023-02-15T12:14:19;66.97;;;28.20;;
18338;SDS011;9295;44.484;11.240;2023-02-15T12:16:48;69.27;;;28.50;;
18338;SDS011;9295;44.484;11.240;2023-02-15T12:19:25;60.90;;;25.97;;
18338;SDS011;9295;44.484;11.240;2023-02-15T12:21:58;68.50;;;29.27;;
18338;SDS011;9295;44.484;11.240;2023-02-15T12:24:29;66.33;;;28.10;;
18338;SDS011;9295;44.484;11.240;2023-02-15T12:27:01;71.03;;;30.97;;
18338;SDS011;9295;44.484;11.240;2023-02-15T12:29:35;69.30;;;29.17;;
18338;SDS011;9295;44.484;11.240;2023-02-15T12:32:10;68.93;;;29.70;;
18338;SDS011;9295;44.484;11.240;2023-02-15T12:34:44;63.87;;;25.73;;
18338;SDS011;9295;44.484;11.240;2023-02-15T12:37:17;60.00;;;27.47;;
18338;SDS011;9295;44.484;11.240;2023-02-15T12:39:54;71.87;;;29.23;;
18338;SDS011;9295;44.484;11.240;2023-02-15T12:42:24;74.27;;;30.43;;
18338;SDS011;9295;44.484;11.240;2023-02-15T12:44:58;70.00;;;29.67;;
18338;SDS011;9295;44.484;11.240;2023-02-15T12:47:29;69.50;;;30.83;;
18338;SDS011;9295;44.484;11.240;2023-02-15T12:50:10;79.43;;;32.10;;
18338;SDS011;9295;44.484;11.240;2023-02-15T12:52:45;77.13;;;31.73;;
18338;SDS011;9295;44.484;11.240;2023-02-15T12:55:19;72.77;;;31.90;;
18338;SDS011;9295;44.484;11.240;2023-02-15T12:57:58;78.53;;;33.07;;
18338;SDS011;9295;44.484;11.240;2023-02-15T13:00:35;75.23;;;32.80;;
18338;SDS011;9295;44.484;11.240;2023-02-15T13:03:03;78.13;;;31.17;;
18338;SDS011;9295;44.484;11.240;2023-02-15T13:05:34;73.03;;;32.50;;
18338;SDS011;9295;44.484;11.240;2023-02-15T13:08:09;78.90;;;33.87;;
18338;SDS011;9295;44.484;11.240;2023-02-15T13:10:40;88.83;;;33.40;;
18338;SDS011;9295;44.484;11.240;2023-02-15T13:13:10;78.07;;;34.83;;
18338;SDS011;9295;44.484;11.240;2023-02-15T13:15:49;97.03;;;34.70;;
18338;SDS011;9295;44.484;11.240;2023-02-15T13:18:21;81.50;;;32.30;;
18338;SDS011;9295;44.484;11.240;2023-02-15T13:20:56;72.93;;;31.93;;
18338;SDS011;9295;44.484;11.240;2023-02-15T13:23:27;78.10;;;32.80;;
18338;SDS011;9295;44.484;11.240;2023-02-15T13:25:58;67.97;;;31.60;;
18338;SDS011;9295;44.484;11.240;2023-02-15T13:28:32;71.97;;;31.97;;
18338;SDS011;9295;44.484;11.240;2023-02-15T13:31:12;83.57;;;35.27;;
18338;SDS011;9295;44.484;11.240;2023-02-15T13:33:43;78.10;;;32.67;;
18338;SDS011;9295;44.484;11.240;2023-02-15T13:36:17;72.60;;;31.13;;
18338;SDS011;9295;44.484;11.240;2023-02-15T13:38:59;77.97;;;33.30;;
18338;SDS011;9295;44.484;11.240;2023-02-15T13:41:42;76.57;;;31.80;;
18338;SDS011;9295;44.484;11.240;2023-02-15T13:44:21;74.40;;;33.60;;
18338;SDS011;9295;44.484;11.240;2023-02-15T13:47:09;71.17;;;31.67;;
18338;SDS011;9295;44.484;11.240;2023-02-15T13:49:48;79.33;;;33.70;;
18338;SDS011;9295;44.484;11.240;2023-02-15T13:52:28;86.93;;;35.67;;
18338;SDS011;9295;44.484;11.240;2023-02-15T13:55:13;77.40;;;35.10;;
18338;SDS011;9295;44.484;11.240;2023-02-15T13:58:05;91.83;;;35.73;;
18338;SDS011;9295;44.484;11.240;2023-02-15T14:01:04;89.13;;;33.97;;
18338;SDS011;9295;44.484;11.240;2023-02-15T14:03:43;80.43;;;34.30;;
18338;SDS011;9295;44.484;11.240;2023-02-15T14:09:51;78.30;;;32.10;;
18338;SDS011;9295;44.484;11.240;2023-02-15T14:12:31;74.87;;;31.80;;
18338;SDS011;9295;44.484;11.240;2023-02-15T14:15:15;72.63;;;32.77;;
18338;SDS011;9295;44.484;11.240;2023-02-15T14:17:55;85.53;;;36.70;;
18338;SDS011;9295;44.484;11.240;2023-02-15T14:20:34;85.97;;;38.33;;
18338;SDS011;9295;44.484;11.240;2023-02-15T14:23:12;85.37;;;35.47;;
18338;SDS011;9295;44.484;11.240;2023-02-15T14:25:57;86.87;;;36.47;;
18338;SDS011;9295;44.484;11.240;2023-02-15T14:28:32;91.83;;;36.93;;
18338;SDS011;9295;44.484;11.240;2023-02-15T14:31:05;78.30;;;34.03;;
18338;SDS011;9295;44.484;11.240;2023-02-15T14:33:37;86.87;;;36.70;;
18338;SDS011;9295;44.484;11.240;2023-02-15T14:36:11;84.90;;;37.00;;
18338;SDS011;9295;44.484;11.240;2023-02-15T14:38:48;92.00;;;37.33;;
18338;SDS011;9295;44.484;11.240;2023-02-15T14:41:26;84.70;;;35.30;;
18338;SDS011;9295;44.484;11.240;2023-02-15T14:44:05;90.20;;;38.07;;
18338;SDS011;9295;44.484;11.240;2023-02-15T14:46:42;83.93;;;35.60;;
18338;SDS011;9295;44.484;11.240;2023-02-15T14:49:20;80.70;;;34.90;;
18338;SDS011;9295;44.484;11.240;2023-02-15T14:51:58;90.80;;;37.23;;
18338;SDS011;9295;44.484;11.240;2023-02-15T14:57:31;92.87;;;38.33;;
18338;SDS011;9295;44.484;11.240;2023-02-15T15:03:10;79.83;;;34.27;;
18338;SDS011;9295;44.484;11.240;2023-02-15T15:05:47;95.33;;;37.90;;
18338;SDS011;9295;44.484;11.240;2023-02-15T15:08:28;85.30;;;36.90;;
18338;SDS011;9295;44.484;11.240;2023-02-15T15:14:10;89.70;;;37.50;;
18338;SDS011;9295;44.484;11.240;2023-02-15T15:17:04;86.10;;;36.10;;
18338;SDS011;9295;44.484;11.240;2023-02-15T15:22:40;86.43;;;36.27;;